EZY2314 EHAM-ENBR
Flight info
| Callsign | EZY2314 |
|---|---|
| Flight time | N/A |
| Altitude | 35000 |
| Route | ANDIK N873 REXMI/N0451F360 DCT KARLI DCT ALUVA |
| Aircraft | A320/M-SDE3FGHIRWY/LB1 |
Departure
| Time | 2026-04-28 15:44 |
|---|---|
| Airport | Amsterdam Airport Schiphol (EHAM) |
Arrival
| Time | N/A |
|---|---|
| Airport | Bergen Airport, Flesland (ENBR) |
| Time | Latitude | Longitude | Altitude | Speed | Heading |
|---|---|---|---|---|---|
| 2026-04-28 15:15 | 52.30705 | 4.77280 | -1 ft | 0 kts | 2° |
| 2026-04-28 15:30 | 52.30703 | 4.77280 | -1 ft | 0 kts | 2° |
| 2026-04-28 15:30 | 52.30700 | 4.77279 | -1 ft | 1 kts | 2° |
| 2026-04-28 15:31 | 52.30695 | 4.77279 | -1 ft | 1 kts | 2° |
| 2026-04-28 15:31 | 52.30688 | 4.77279 | -1 ft | 2 kts | 3° |
| 2026-04-28 15:31 | 52.30675 | 4.77276 | -1 ft | 2 kts | 19° |
| 2026-04-28 15:31 | 52.30663 | 4.77268 | -1 ft | 2 kts | 35° |
| 2026-04-28 15:32 | 52.30649 | 4.77250 | 15 ft | 3 kts | 55° |
| 2026-04-28 15:32 | 52.30644 | 4.77239 | -6 ft | 0 kts | 89° |
| 2026-04-28 15:33 | 52.30644 | 4.77241 | -7 ft | 1 kts | 89° |
| 2026-04-28 15:33 | 52.30643 | 4.77324 | -7 ft | 10 kts | 92° |
| 2026-04-28 15:34 | 52.30639 | 4.77447 | -1 ft | 11 kts | 91° |
| 2026-04-28 15:34 | 52.30659 | 4.77574 | -1 ft | 12 kts | 44° |
| 2026-04-28 15:34 | 52.30742 | 4.77589 | -1 ft | 13 kts | 3° |
| 2026-04-28 15:34 | 52.30836 | 4.77599 | -1 ft | 14 kts | 6° |
| 2026-04-28 15:35 | 52.30939 | 4.77614 | -1 ft | 15 kts | 2° |
| 2026-04-28 15:35 | 52.31163 | 4.77631 | -1 ft | 17 kts | 4° |
| 2026-04-28 15:35 | 52.31300 | 4.77642 | -1 ft | 23 kts | 3° |
| 2026-04-28 15:36 | 52.31474 | 4.77613 | -1 ft | 28 kts | 327° |
| 2026-04-28 15:36 | 52.31577 | 4.77338 | -1 ft | 30 kts | 268° |
| 2026-04-28 15:36 | 52.31563 | 4.76996 | -1 ft | 29 kts | 268° |
| 2026-04-28 15:36 | 52.31555 | 4.76679 | -1 ft | 27 kts | 266° |
| 2026-04-28 15:37 | 52.31544 | 4.76402 | -1 ft | 22 kts | 267° |
| 2026-04-28 15:37 | 52.31537 | 4.76186 | -1 ft | 18 kts | 266° |
| 2026-04-28 15:37 | 52.31529 | 4.75990 | -1 ft | 17 kts | 266° |
| 2026-04-28 15:37 | 52.31525 | 4.75868 | -1 ft | 16 kts | 266° |
| 2026-04-28 15:38 | 52.31514 | 4.75579 | -1 ft | 18 kts | 267° |
| 2026-04-28 15:38 | 52.31510 | 4.75422 | -1 ft | 10 kts | 267° |
| 2026-04-28 15:38 | 52.31506 | 4.75290 | 1 ft | 0 kts | 268° |
| 2026-04-28 15:38 | 52.31505 | 4.75230 | -1 ft | 16 kts | 267° |
| 2026-04-28 15:39 | 52.31500 | 4.75096 | -1 ft | 1 kts | 267° |
| 2026-04-28 15:39 | 52.31499 | 4.75063 | -1 ft | 5 kts | 267° |
| 2026-04-28 15:39 | 52.31495 | 4.74969 | -1 ft | 18 kts | 266° |
| 2026-04-28 15:39 | 52.31491 | 4.74860 | -1 ft | 0 kts | 267° |
| 2026-04-28 15:40 | 52.31491 | 4.74859 | -1 ft | 0 kts | 267° |
| 2026-04-28 15:40 | 52.31488 | 4.74789 | -1 ft | 17 kts | 266° |
| 2026-04-28 15:41 | 52.31525 | 4.74666 | -1 ft | 6 kts | 339° |
| 2026-04-28 15:41 | 52.31561 | 4.74660 | -1 ft | 0 kts | 359° |
| 2026-04-28 15:42 | 52.31565 | 4.74660 | -1 ft | 4 kts | 359° |
| 2026-04-28 15:42 | 52.31643 | 4.74679 | 0 ft | 10 kts | 25° |
| 2026-04-28 15:42 | 52.31667 | 4.74740 | -1 ft | 0 kts | 85° |
| 2026-04-28 15:43 | 52.31668 | 4.74746 | 0 ft | 4 kts | 86° |
| 2026-04-28 15:43 | 52.31681 | 4.75130 | -3 ft | 69 kts | 86° |
| 2026-04-28 15:43 | 52.31719 | 4.76253 | 0 ft | 126 kts | 87° |
| 2026-04-28 15:44 | 52.31763 | 4.77910 | 72 ft | 164 kts | 88° |
| 2026-04-28 15:44 | 52.31734 | 4.79799 | 628 ft | 170 kts | 84° |
| 2026-04-28 15:44 | 52.31816 | 4.81701 | 1345 ft | 169 kts | 81° |
| 2026-04-28 15:44 | 52.31956 | 4.83712 | 1710 ft | 190 kts | 80° |
| 2026-04-28 15:45 | 52.32121 | 4.86000 | 2129 ft | 215 kts | 81° |
| 2026-04-28 15:45 | 52.32295 | 4.88526 | 2763 ft | 230 kts | 80° |
| 2026-04-28 15:45 | 52.32826 | 4.90996 | 3612 ft | 235 kts | 58° |
| 2026-04-28 15:45 | 52.33797 | 4.93187 | 4517 ft | 241 kts | 56° |
| 2026-04-28 15:46 | 52.34798 | 4.95440 | 5353 ft | 248 kts | 57° |
| 2026-04-28 15:46 | 52.35818 | 4.97760 | 6165 ft | 254 kts | 57° |
| 2026-04-28 15:46 | 52.36855 | 5.00127 | 7042 ft | 258 kts | 57° |
| 2026-04-28 15:46 | 52.37899 | 5.02523 | 7913 ft | 260 kts | 57° |
| 2026-04-28 15:47 | 52.38960 | 5.04965 | 8714 ft | 265 kts | 56° |
| 2026-04-28 15:47 | 52.40038 | 5.07440 | 9547 ft | 269 kts | 57° |
| 2026-04-28 15:47 | 52.41124 | 5.09931 | 10403 ft | 271 kts | 56° |
| 2026-04-28 15:47 | 52.42457 | 5.12256 | 10740 ft | 295 kts | 38° |
| 2026-04-28 15:48 | 52.44338 | 5.13929 | 10959 ft | 322 kts | 24° |
| 2026-04-28 15:48 | 52.46570 | 5.14978 | 11244 ft | 343 kts | 15° |
| 2026-04-28 15:48 | 52.48922 | 5.15872 | 11813 ft | 350 kts | 17° |
| 2026-04-28 15:48 | 52.51291 | 5.16883 | 12524 ft | 353 kts | 18° |
| 2026-04-28 15:49 | 52.53641 | 5.17942 | 13240 ft | 356 kts | 18° |
| 2026-04-28 15:49 | 52.56047 | 5.19046 | 13923 ft | 361 kts | 18° |
| 2026-04-28 15:49 | 52.58475 | 5.20155 | 14580 ft | 363 kts | 18° |
| 2026-04-28 15:49 | 52.60938 | 5.21270 | 15178 ft | 367 kts | 18° |
| 2026-04-28 15:50 | 52.63410 | 5.22378 | 15776 ft | 371 kts | 18° |
| 2026-04-28 15:50 | 52.65905 | 5.23486 | 16401 ft | 373 kts | 17° |
| 2026-04-28 15:50 | 52.68418 | 5.24598 | 17009 ft | 375 kts | 17° |
| 2026-04-28 15:50 | 52.70930 | 5.25834 | 17624 ft | 375 kts | 24° |
| 2026-04-28 15:51 | 52.73264 | 5.27757 | 18194 ft | 377 kts | 33° |
| 2026-04-28 15:51 | 52.75341 | 5.30415 | 18704 ft | 379 kts | 45° |
| 2026-04-28 15:51 | 52.77061 | 5.33627 | 19237 ft | 379 kts | 52° |
| 2026-04-28 15:51 | 52.78691 | 5.37068 | 19700 ft | 382 kts | 52° |
| 2026-04-28 15:52 | 52.80332 | 5.40535 | 20239 ft | 383 kts | 52° |
| 2026-04-28 15:52 | 52.81977 | 5.44020 | 20677 ft | 387 kts | 52° |
| 2026-04-28 15:52 | 52.83634 | 5.47537 | 21186 ft | 388 kts | 52° |
| 2026-04-28 15:52 | 52.85298 | 5.51076 | 21632 ft | 391 kts | 52° |
| 2026-04-28 15:53 | 52.86972 | 5.54648 | 22115 ft | 393 kts | 52° |
| 2026-04-28 15:53 | 52.88650 | 5.58233 | 22579 ft | 395 kts | 52° |
| 2026-04-28 15:53 | 52.90341 | 5.61851 | 23047 ft | 397 kts | 51° |
| 2026-04-28 15:53 | 52.92034 | 5.65480 | 23523 ft | 400 kts | 51° |
| 2026-04-28 15:54 | 52.93738 | 5.69140 | 23928 ft | 402 kts | 51° |
| 2026-04-28 15:54 | 52.95449 | 5.72821 | 24305 ft | 404 kts | 52° |
| 2026-04-28 15:54 | 52.97164 | 5.76513 | 24671 ft | 405 kts | 52° |
| 2026-04-28 15:54 | 52.98889 | 5.80223 | 25055 ft | 406 kts | 52° |
| 2026-04-28 15:55 | 53.00618 | 5.83944 | 25267 ft | 406 kts | 52° |
| 2026-04-28 15:55 | 53.02338 | 5.87657 | 25320 ft | 405 kts | 52° |
| 2026-04-28 15:55 | 53.04031 | 5.91325 | 25312 ft | 405 kts | 52° |
| 2026-04-28 15:55 | 53.05738 | 5.95033 | 25322 ft | 404 kts | 52° |
| 2026-04-28 15:56 | 53.07443 | 5.98749 | 25316 ft | 404 kts | 52° |
| 2026-04-28 15:56 | 53.09152 | 6.02470 | 25318 ft | 404 kts | 52° |
| 2026-04-28 15:56 | 53.10860 | 6.06190 | 25320 ft | 403 kts | 52° |
| 2026-04-28 15:56 | 53.12559 | 6.09883 | 25321 ft | 401 kts | 52° |
| 2026-04-28 15:57 | 53.14256 | 6.13571 | 25336 ft | 401 kts | 51° |
| 2026-04-28 15:57 | 53.15951 | 6.17265 | 25316 ft | 402 kts | 51° |
| 2026-04-28 15:57 | 53.17646 | 6.20972 | 25316 ft | 403 kts | 51° |
| 2026-04-28 15:57 | 53.19344 | 6.24696 | 25329 ft | 403 kts | 52° |
| 2026-04-28 15:58 | 53.20466 | 6.27162 | 25338 ft | 403 kts | 52° |
| 2026-04-28 15:58 | 53.22163 | 6.30898 | 25493 ft | 405 kts | 52° |
| 2026-04-28 15:58 | 53.23865 | 6.34654 | 25888 ft | 406 kts | 52° |
| 2026-04-28 15:58 | 53.25571 | 6.38421 | 26295 ft | 407 kts | 52° |
| 2026-04-28 15:59 | 53.27279 | 6.42196 | 26671 ft | 408 kts | 52° |
| 2026-04-28 15:59 | 53.28988 | 6.45971 | 27063 ft | 408 kts | 52° |
| 2026-04-28 15:59 | 53.30702 | 6.49767 | 27420 ft | 409 kts | 52° |
| 2026-04-28 15:59 | 53.32412 | 6.53564 | 27776 ft | 409 kts | 52° |